sensor_id;sensor_type;location;lat;lon;timestamp;temperature;humidity
23385;DHT22;11865;45.394;10.978;2022-12-18T00:01:22;5.20;99.90
23385;DHT22;11865;45.394;10.978;2022-12-18T00:03:51;5.40;99.90
23385;DHT22;11865;45.394;10.978;2022-12-18T00:06:19;5.50;99.90
23385;DHT22;11865;45.394;10.978;2022-12-18T00:08:47;5.40;99.90
23385;DHT22;11865;45.394;10.978;2022-12-18T00:11:18;5.20;99.90
23385;DHT22;11865;45.394;10.978;2022-12-18T00:13:46;5.00;99.90
23385;DHT22;11865;45.394;10.978;2022-12-18T00:16:17;5.10;99.90
23385;DHT22;11865;45.394;10.978;2022-12-18T00:18:49;4.90;99.90
23385;DHT22;11865;45.394;10.978;2022-12-18T00:21:17;4.70;99.90
23385;DHT22;11865;45.394;10.978;2022-12-18T00:23:46;4.80;99.90
23385;DHT22;11865;45.394;10.978;2022-12-18T00:26:18;5.10;99.90
23385;DHT22;11865;45.394;10.978;2022-12-18T00:28:47;5.30;99.90
23385;DHT22;11865;45.394;10.978;2022-12-18T00:31:20;5.20;99.90
23385;DHT22;11865;45.394;10.978;2022-12-18T00:33:48;4.90;99.90
23385;DHT22;11865;45.394;10.978;2022-12-18T00:36:23;4.90;99.90
23385;DHT22;11865;45.394;10.978;2022-12-18T00:38:53;5.10;99.90
23385;DHT22;11865;45.394;10.978;2022-12-18T00:41:21;5.30;99.90
23385;DHT22;11865;45.394;10.978;2022-12-18T00:44:09;5.40;99.90
23385;DHT22;11865;45.394;10.978;2022-12-18T00:46:37;5.50;99.90
23385;DHT22;11865;45.394;10.978;2022-12-18T00:49:04;5.30;99.90
23385;DHT22;11865;45.394;10.978;2022-12-18T00:51:32;5.30;99.90
23385;DHT22;11865;45.394;10.978;2022-12-18T00:54:00;5.40;99.90
23385;DHT22;11865;45.394;10.978;2022-12-18T00:56:28;5.40;99.90
23385;DHT22;11865;45.394;10.978;2022-12-18T00:58:55;5.20;99.90
23385;DHT22;11865;45.394;10.978;2022-12-18T01:01:23;5.10;99.90
23385;DHT22;11865;45.394;10.978;2022-12-18T01:03:50;5.20;99.90
23385;DHT22;11865;45.394;10.978;2022-12-18T01:06:19;5.10;99.90
23385;DHT22;11865;45.394;10.978;2022-12-18T01:08:47;5.10;99.90
23385;DHT22;11865;45.394;10.978;2022-12-18T01:11:21;5.10;99.90
23385;DHT22;11865;45.394;10.978;2022-12-18T01:13:48;5.10;99.90
23385;DHT22;11865;45.394;10.978;2022-12-18T01:16:17;5.00;99.90
23385;DHT22;11865;45.394;10.978;2022-12-18T01:18:45;5.40;99.90
23385;DHT22;11865;45.394;10.978;2022-12-18T01:21:15;5.60;99.90
23385;DHT22;11865;45.394;10.978;2022-12-18T01:23:44;5.60;99.90
23385;DHT22;11865;45.394;10.978;2022-12-18T01:26:14;5.60;99.90
23385;DHT22;11865;45.394;10.978;2022-12-18T01:28:43;5.70;99.90
23385;DHT22;11865;45.394;10.978;2022-12-18T01:31:17;5.90;99.90
23385;DHT22;11865;45.394;10.978;2022-12-18T01:33:46;6.00;99.90
23385;DHT22;11865;45.394;10.978;2022-12-18T01:36:24;6.10;99.90
23385;DHT22;11865;45.394;10.978;2022-12-18T01:38:52;6.10;99.90
23385;DHT22;11865;45.394;10.978;2022-12-18T01:41:23;6.10;99.90
23385;DHT22;11865;45.394;10.978;2022-12-18T01:43:55;6.10;99.90
23385;DHT22;11865;45.394;10.978;2022-12-18T01:46:25;6.20;99.90
23385;DHT22;11865;45.394;10.978;2022-12-18T01:48:58;6.40;99.90
23385;DHT22;11865;45.394;10.978;2022-12-18T01:51:30;6.40;99.90
23385;DHT22;11865;45.394;10.978;2022-12-18T01:53:59;6.30;99.90
23385;DHT22;11865;45.394;10.978;2022-12-18T01:56:27;6.10;99.90
23385;DHT22;11865;45.394;10.978;2022-12-18T01:59:06;6.00;99.90
23385;DHT22;11865;45.394;10.978;2022-12-18T02:01:36;6.00;99.90
23385;DHT22;11865;45.394;10.978;2022-12-18T02:04:22;5.90;99.90
23385;DHT22;11865;45.394;10.978;2022-12-18T02:09:36;5.90;99.90
23385;DHT22;11865;45.394;10.978;2022-12-18T02:12:25;6.10;99.90
23385;DHT22;11865;45.394;10.978;2022-12-18T02:15:09;6.20;99.90
23385;DHT22;11865;45.394;10.978;2022-12-18T02:18:02;6.30;99.90
23385;DHT22;11865;45.394;10.978;2022-12-18T02:20:35;6.50;99.90
23385;DHT22;11865;45.394;10.978;2022-12-18T02:26:14;6.60;99.90
23385;DHT22;11865;45.394;10.978;2022-12-18T02:31:45;6.10;99.90
23385;DHT22;11865;45.394;10.978;2022-12-18T02:34:16;6.00;99.90
23385;DHT22;11865;45.394;10.978;2022-12-18T02:36:46;6.00;99.90
23385;DHT22;11865;45.394;10.978;2022-12-18T02:39:16;6.00;99.90
23385;DHT22;11865;45.394;10.978;2022-12-18T02:41:57;6.00;99.90
23385;DHT22;11865;45.394;10.978;2022-12-18T02:44:25;6.00;99.90
23385;DHT22;11865;45.394;10.978;2022-12-18T02:46:54;5.90;99.90
23385;DHT22;11865;45.394;10.978;2022-12-18T02:54:52;5.90;99.90
23385;DHT22;11865;45.394;10.978;2022-12-18T03:05:45;5.90;99.90
23385;DHT22;11865;45.394;10.978;2022-12-18T03:08:27;6.10;99.90
23385;DHT22;11865;45.394;10.978;2022-12-18T03:11:04;5.90;99.90
23385;DHT22;11865;45.394;10.978;2022-12-18T03:16:09;5.90;99.90
23385;DHT22;11865;45.394;10.978;2022-12-18T03:18:53;6.10;99.90
23385;DHT22;11865;45.394;10.978;2022-12-18T03:21:33;5.90;99.90
23385;DHT22;11865;45.394;10.978;2022-12-18T03:24:06;5.80;99.90
23385;DHT22;11865;45.394;10.978;2022-12-18T03:26:36;5.80;99.90
23385;DHT22;11865;45.394;10.978;2022-12-18T03:29:11;5.90;99.90
23385;DHT22;11865;45.394;10.978;2022-12-18T03:31:42;5.90;99.90
23385;DHT22;11865;45.394;10.978;2022-12-18T03:34:16;6.00;99.90
23385;DHT22;11865;45.394;10.978;2022-12-18T03:36:46;6.00;99.90
23385;DHT22;11865;45.394;10.978;2022-12-18T03:39:14;6.00;99.90
23385;DHT22;11865;45.394;10.978;2022-12-18T03:41:58;6.10;99.90
23385;DHT22;11865;45.394;10.978;2022-12-18T03:47:34;5.90;99.90
23385;DHT22;11865;45.394;10.978;2022-12-18T03:50:22;5.90;99.90
23385;DHT22;11865;45.394;10.978;2022-12-18T03:52:58;5.90;99.90
23385;DHT22;11865;45.394;10.978;2022-12-18T03:55:30;5.80;99.90
23385;DHT22;11865;45.394;10.978;2022-12-18T03:58:04;5.90;99.90
23385;DHT22;11865;45.394;10.978;2022-12-18T04:00:51;5.90;99.90
23385;DHT22;11865;45.394;10.978;2022-12-18T04:03:20;5.80;99.90
23385;DHT22;11865;45.394;10.978;2022-12-18T04:05:54;5.70;99.90
23385;DHT22;11865;45.394;10.978;2022-12-18T04:08:23;5.80;99.90
23385;DHT22;11865;45.394;10.978;2022-12-18T04:11:01;5.70;99.90
23385;DHT22;11865;45.394;10.978;2022-12-18T04:13:35;5.70;99.90
23385;DHT22;11865;45.394;10.978;2022-12-18T04:16:07;5.70;99.90
23385;DHT22;11865;45.394;10.978;2022-12-18T04:18:39;5.60;99.90
23385;DHT22;11865;45.394;10.978;2022-12-18T04:21:08;5.70;99.90
23385;DHT22;11865;45.394;10.978;2022-12-18T04:23:36;5.60;99.90
23385;DHT22;11865;45.394;10.978;2022-12-18T04:26:04;5.60;99.90
23385;DHT22;11865;45.394;10.978;2022-12-18T04:28:46;5.60;99.90
23385;DHT22;11865;45.394;10.978;2022-12-18T04:31:15;5.80;99.90
23385;DHT22;11865;45.394;10.978;2022-12-18T04:33:42;5.80;99.90
23385;DHT22;11865;45.394;10.978;2022-12-18T04:36:10;5.80;99.90
23385;DHT22;11865;45.394;10.978;2022-12-18T04:38:40;5.60;99.90
23385;DHT22;11865;45.394;10.978;2022-12-18T04:41:12;5.60;99.90
23385;DHT22;11865;45.394;10.978;2022-12-18T04:43:41;5.70;99.90
23385;DHT22;11865;45.394;10.978;2022-12-18T04:46:09;5.60;99.90
23385;DHT22;11865;45.394;10.978;2022-12-18T04:48:37;5.70;99.90
23385;DHT22;11865;45.394;10.978;2022-12-18T04:51:05;5.60;99.90
23385;DHT22;11865;45.394;10.978;2022-12-18T04:53:33;5.70;99.90
23385;DHT22;11865;45.394;10.978;2022-12-18T04:56:12;5.70;99.90
23385;DHT22;11865;45.394;10.978;2022-12-18T04:58:41;5.70;99.90
23385;DHT22;11865;45.394;10.978;2022-12-18T05:01:11;5.60;99.90
23385;DHT22;11865;45.394;10.978;2022-12-18T05:03:39;5.80;99.90
23385;DHT22;11865;45.394;10.978;2022-12-18T05:06:07;5.90;99.90
23385;DHT22;11865;45.394;10.978;2022-12-18T05:08:35;5.80;99.90
23385;DHT22;11865;45.394;10.978;2022-12-18T05:11:06;5.80;99.90
23385;DHT22;11865;45.394;10.978;2022-12-18T05:13:34;5.80;99.90
23385;DHT22;11865;45.394;10.978;2022-12-18T05:16:02;5.70;99.90
23385;DHT22;11865;45.394;10.978;2022-12-18T05:18:30;5.60;99.90
23385;DHT22;11865;45.394;10.978;2022-12-18T05:20:58;5.60;99.90
23385;DHT22;11865;45.394;10.978;2022-12-18T05:23:26;5.50;99.90
23385;DHT22;11865;45.394;10.978;2022-12-18T05:25:58;5.40;99.90
23385;DHT22;11865;45.394;10.978;2022-12-18T05:28:28;5.50;99.90
23385;DHT22;11865;45.394;10.978;2022-12-18T05:30:58;5.60;99.90
23385;DHT22;11865;45.394;10.978;2022-12-18T05:33:29;5.70;99.90
23385;DHT22;11865;45.394;10.978;2022-12-18T05:35:59;5.60;99.90
23385;DHT22;11865;45.394;10.978;2022-12-18T05:38:28;5.70;99.90
23385;DHT22;11865;45.394;10.978;2022-12-18T05:40:56;5.60;99.90
23385;DHT22;11865;45.394;10.978;2022-12-18T05:43:25;5.40;99.90
23385;DHT22;11865;45.394;10.978;2022-12-18T05:45:54;5.40;99.90
23385;DHT22;11865;45.394;10.978;2022-12-18T05:48:22;5.50;99.90
23385;DHT22;11865;45.394;10.978;2022-12-18T05:50:50;5.60;99.90
23385;DHT22;11865;45.394;10.978;2022-12-18T05:53:19;5.60;99.90
23385;DHT22;11865;45.394;10.978;2022-12-18T05:55:47;5.90;99.90
23385;DHT22;11865;45.394;10.978;2022-12-18T05:58:15;6.00;99.90
23385;DHT22;11865;45.394;10.978;2022-12-18T06:00:45;6.00;99.90
23385;DHT22;11865;45.394;10.978;2022-12-18T06:03:13;5.80;99.90
23385;DHT22;11865;45.394;10.978;2022-12-18T06:05:43;5.60;99.90
23385;DHT22;11865;45.394;10.978;2022-12-18T06:08:13;5.50;99.90
23385;DHT22;11865;45.394;10.978;2022-12-18T06:10:41;5.60;99.90
23385;DHT22;11865;45.394;10.978;2022-12-18T06:13:08;5.70;99.90
23385;DHT22;11865;45.394;10.978;2022-12-18T06:15:37;5.60;99.90
23385;DHT22;11865;45.394;10.978;2022-12-18T06:18:05;5.70;99.90
23385;DHT22;11865;45.394;10.978;2022-12-18T06:20:32;5.70;99.90
23385;DHT22;11865;45.394;10.978;2022-12-18T06:23:00;5.70;99.90
23385;DHT22;11865;45.394;10.978;2022-12-18T06:25:28;5.60;99.90
23385;DHT22;11865;45.394;10.978;2022-12-18T06:27:55;5.60;99.90
23385;DHT22;11865;45.394;10.978;2022-12-18T06:30:23;5.50;99.90
23385;DHT22;11865;45.394;10.978;2022-12-18T06:32:50;5.50;99.90
23385;DHT22;11865;45.394;10.978;2022-12-18T06:35:23;5.40;99.90
23385;DHT22;11865;45.394;10.978;2022-12-18T06:37:51;5.50;99.90
23385;DHT22;11865;45.394;10.978;2022-12-18T06:40:18;5.40;99.90
23385;DHT22;11865;45.394;10.978;2022-12-18T06:42:46;5.40;99.90
23385;DHT22;11865;45.394;10.978;2022-12-18T06:45:16;5.50;99.90
23385;DHT22;11865;45.394;10.978;2022-12-18T06:47:44;5.60;99.90
23385;DHT22;11865;45.394;10.978;2022-12-18T06:50:12;5.60;99.90
23385;DHT22;11865;45.394;10.978;2022-12-18T06:52:40;5.50;99.90
23385;DHT22;11865;45.394;10.978;2022-12-18T06:55:07;5.50;99.90
23385;DHT22;11865;45.394;10.978;2022-12-18T06:57:35;5.70;99.90
23385;DHT22;11865;45.394;10.978;2022-12-18T07:00:06;5.70;99.90
23385;DHT22;11865;45.394;10.978;2022-12-18T07:02:34;5.70;99.90
23385;DHT22;11865;45.394;10.978;2022-12-18T07:05:02;5.80;99.90
23385;DHT22;11865;45.394;10.978;2022-12-18T07:07:36;5.80;99.90
23385;DHT22;11865;45.394;10.978;2022-12-18T07:10:04;5.80;99.90
23385;DHT22;11865;45.394;10.978;2022-12-18T07:12:32;5.80;99.90
23385;DHT22;11865;45.394;10.978;2022-12-18T07:14:59;5.80;99.90
23385;DHT22;11865;45.394;10.978;2022-12-18T07:17:27;5.80;99.90
23385;DHT22;11865;45.394;10.978;2022-12-18T07:19:54;6.00;99.90
23385;DHT22;11865;45.394;10.978;2022-12-18T07:22:22;6.00;99.90
23385;DHT22;11865;45.394;10.978;2022-12-18T07:24:49;6.10;99.90
23385;DHT22;11865;45.394;10.978;2022-12-18T07:27:17;6.00;99.90
23385;DHT22;11865;45.394;10.978;2022-12-18T07:29:44;6.10;99.90
23385;DHT22;11865;45.394;10.978;2022-12-18T07:32:12;6.30;99.90
23385;DHT22;11865;45.394;10.978;2022-12-18T07:34:40;6.40;99.90
23385;DHT22;11865;45.394;10.978;2022-12-18T07:37:08;6.30;99.90
23385;DHT22;11865;45.394;10.978;2022-12-18T07:39:35;6.30;99.90
23385;DHT22;11865;45.394;10.978;2022-12-18T07:42:03;6.20;99.90
23385;DHT22;11865;45.394;10.978;2022-12-18T07:44:49;6.10;99.90
23385;DHT22;11865;45.394;10.978;2022-12-18T07:47:16;6.20;99.90
23385;DHT22;11865;45.394;10.978;2022-12-18T07:49:44;6.30;99.90
23385;DHT22;11865;45.394;10.978;2022-12-18T07:52:11;6.40;99.90
23385;DHT22;11865;45.394;10.978;2022-12-18T07:54:39;6.40;99.90
23385;DHT22;11865;45.394;10.978;2022-12-18T07:57:08;6.30;99.90
23385;DHT22;11865;45.394;10.978;2022-12-18T07:59:56;6.50;99.90
23385;DHT22;11865;45.394;10.978;2022-12-18T08:02:23;6.60;99.90
23385;DHT22;11865;45.394;10.978;2022-12-18T08:04:51;6.50;99.90
23385;DHT22;11865;45.394;10.978;2022-12-18T08:07:18;6.50;99.90
23385;DHT22;11865;45.394;10.978;2022-12-18T08:09:46;6.50;99.90
23385;DHT22;11865;45.394;10.978;2022-12-18T08:12:13;6.50;99.90
23385;DHT22;11865;45.394;10.978;2022-12-18T08:14:41;6.40;99.90
23385;DHT22;11865;45.394;10.978;2022-12-18T08:17:08;6.50;99.90
23385;DHT22;11865;45.394;10.978;2022-12-18T08:19:36;6.50;99.90
23385;DHT22;11865;45.394;10.978;2022-12-18T08:22:03;6.50;99.90
23385;DHT22;11865;45.394;10.978;2022-12-18T08:24:31;6.60;99.90
23385;DHT22;11865;45.394;10.978;2022-12-18T08:26:58;6.70;99.90
23385;DHT22;11865;45.394;10.978;2022-12-18T08:29:46;6.70;99.90
23385;DHT22;11865;45.394;10.978;2022-12-18T08:32:13;6.80;99.90
23385;DHT22;11865;45.394;10.978;2022-12-18T08:34:41;6.80;99.90
23385;DHT22;11865;45.394;10.978;2022-12-18T08:37:09;6.70;99.90
23385;DHT22;11865;45.394;10.978;2022-12-18T08:39:36;6.90;99.90
23385;DHT22;11865;45.394;10.978;2022-12-18T08:42:04;7.00;99.90
23385;DHT22;11865;45.394;10.978;2022-12-18T08:44:50;7.00;99.90
23385;DHT22;11865;45.394;10.978;2022-12-18T08:47:17;7.00;99.90
23385;DHT22;11865;45.394;10.978;2022-12-18T08:49:45;7.20;99.90
23385;DHT22;11865;45.394;10.978;2022-12-18T08:52:12;7.20;99.90
23385;DHT22;11865;45.394;10.978;2022-12-18T08:54:40;7.30;99.90
23385;DHT22;11865;45.394;10.978;2022-12-18T08:57:07;7.40;99.90
23385;DHT22;11865;45.394;10.978;2022-12-18T08:59:35;7.60;99.90
23385;DHT22;11865;45.394;10.978;2022-12-18T09:02:02;7.50;99.90
23385;DHT22;11865;45.394;10.978;2022-12-18T09:04:30;7.60;99.90
23385;DHT22;11865;45.394;10.978;2022-12-18T09:06:58;7.70;99.90
23385;DHT22;11865;45.394;10.978;2022-12-18T09:09:25;7.60;99.90
23385;DHT22;11865;45.394;10.978;2022-12-18T09:11:53;7.60;99.90
23385;DHT22;11865;45.394;10.978;2022-12-18T09:14:20;7.80;99.90
23385;DHT22;11865;45.394;10.978;2022-12-18T09:16:48;7.90;99.90
23385;DHT22;11865;45.394;10.978;2022-12-18T09:19:15;8.10;99.90
23385;DHT22;11865;45.394;10.978;2022-12-18T09:21:43;8.20;99.90
23385;DHT22;11865;45.394;10.978;2022-12-18T09:24:15;8.20;99.90
23385;DHT22;11865;45.394;10.978;2022-12-18T09:26:43;8.00;99.90
23385;DHT22;11865;45.394;10.978;2022-12-18T09:29:14;8.00;99.90
23385;DHT22;11865;45.394;10.978;2022-12-18T09:31:45;8.10;99.90
23385;DHT22;11865;45.394;10.978;2022-12-18T09:34:12;8.20;99.90
23385;DHT22;11865;45.394;10.978;2022-12-18T09:36:40;8.30;99.90
23385;DHT22;11865;45.394;10.978;2022-12-18T09:39:09;8.40;99.90
23385;DHT22;11865;45.394;10.978;2022-12-18T09:44:21;8.50;99.90
23385;DHT22;11865;45.394;10.978;2022-12-18T09:46:52;8.30;99.90
23385;DHT22;11865;45.394;10.978;2022-12-18T09:49:24;8.50;99.90
23385;DHT22;11865;45.394;10.978;2022-12-18T09:54:38;8.70;99.90
23385;DHT22;11865;45.394;10.978;2022-12-18T09:57:06;8.50;99.90
23385;DHT22;11865;45.394;10.978;2022-12-18T09:59:38;8.50;99.90
23385;DHT22;11865;45.394;10.978;2022-12-18T10:02:18;8.30;99.90
23385;DHT22;11865;45.394;10.978;2022-12-18T10:04:54;8.30;99.90
23385;DHT22;11865;45.394;10.978;2022-12-18T10:07:34;8.30;99.90
23385;DHT22;11865;45.394;10.978;2022-12-18T10:21:23;8.60;99.90
23385;DHT22;11865;45.394;10.978;2022-12-18T10:26:28;8.70;99.90
23385;DHT22;11865;45.394;10.978;2022-12-18T10:28:58;8.70;99.90
23385;DHT22;11865;45.394;10.978;2022-12-18T10:31:31;8.60;99.90
23385;DHT22;11865;45.394;10.978;2022-12-18T10:33:59;8.60;99.90
23385;DHT22;11865;45.394;10.978;2022-12-18T10:36:26;8.50;99.90
23385;DHT22;11865;45.394;10.978;2022-12-18T10:39:19;8.40;99.90
23385;DHT22;11865;45.394;10.978;2022-12-18T10:41:48;8.60;99.90
23385;DHT22;11865;45.394;10.978;2022-12-18T10:44:24;8.60;99.90
23385;DHT22;11865;45.394;10.978;2022-12-18T10:46:55;8.80;99.90
23385;DHT22;11865;45.394;10.978;2022-12-18T10:49:35;8.80;99.90
23385;DHT22;11865;45.394;10.978;2022-12-18T11:00:00;9.00;99.90
23385;DHT22;11865;45.394;10.978;2022-12-18T11:02:38;9.20;99.90
23385;DHT22;11865;45.394;10.978;2022-12-18T11:05:31;9.30;99.90
23385;DHT22;11865;45.394;10.978;2022-12-18T11:08:00;9.30;99.90
23385;DHT22;11865;45.394;10.978;2022-12-18T11:13:15;9.10;99.90
23385;DHT22;11865;45.394;10.978;2022-12-18T11:15:44;9.10;99.90
23385;DHT22;11865;45.394;10.978;2022-12-18T11:18:33;9.10;99.90
23385;DHT22;11865;45.394;10.978;2022-12-18T11:21:07;9.30;99.90
23385;DHT22;11865;45.394;10.978;2022-12-18T11:23:43;9.50;99.90
23385;DHT22;11865;45.394;10.978;2022-12-18T11:26:12;9.50;99.90
23385;DHT22;11865;45.394;10.978;2022-12-18T11:28:47;9.60;99.90
23385;DHT22;11865;45.394;10.978;2022-12-18T11:31:29;9.60;99.90
23385;DHT22;11865;45.394;10.978;2022-12-18T11:34:10;9.50;99.90
23385;DHT22;11865;45.394;10.978;2022-12-18T11:36:58;9.30;99.90
23385;DHT22;11865;45.394;10.978;2022-12-18T11:39:46;9.20;99.90
23385;DHT22;11865;45.394;10.978;2022-12-18T11:53:04;9.00;99.90
23385;DHT22;11865;45.394;10.978;2022-12-18T11:56:02;9.20;99.90
23385;DHT22;11865;45.394;10.978;2022-12-18T12:26:49;9.00;99.90
23385;DHT22;11865;45.394;10.978;2022-12-18T12:32:16;9.20;99.90
23385;DHT22;11865;45.394;10.978;2022-12-18T12:35:03;9.30;99.90
23385;DHT22;11865;45.394;10.978;2022-12-18T12:40:24;9.40;99.90
23385;DHT22;11865;45.394;10.978;2022-12-18T12:43:25;9.40;99.90
23385;DHT22;11865;45.394;10.978;2022-12-18T12:46:03;9.30;99.90
23385;DHT22;11865;45.394;10.978;2022-12-18T12:48:44;9.20;99.90
23385;DHT22;11865;45.394;10.978;2022-12-18T12:53:50;9.20;99.90
23385;DHT22;11865;45.394;10.978;2022-12-18T12:56:20;9.30;99.90
23385;DHT22;11865;45.394;10.978;2022-12-18T12:59:32;9.20;99.90
23385;DHT22;11865;45.394;10.978;2022-12-18T13:04:47;9.30;99.90
23385;DHT22;11865;45.394;10.978;2022-12-18T13:07:40;9.20;99.90
23385;DHT22;11865;45.394;10.978;2022-12-18T13:10:24;9.20;99.90
23385;DHT22;11865;45.394;10.978;2022-12-18T13:15:40;9.10;99.90
23385;DHT22;11865;45.394;10.978;2022-12-18T13:20:47;9.20;99.90
23385;DHT22;11865;45.394;10.978;2022-12-18T13:23:28;9.20;99.90
23385;DHT22;11865;45.394;10.978;2022-12-18T13:34:14;9.00;99.90
23385;DHT22;11865;45.394;10.978;2022-12-18T13:39:58;9.20;99.90
23385;DHT22;11865;45.394;10.978;2022-12-18T13:42:39;9.10;99.90
23385;DHT22;11865;45.394;10.978;2022-12-18T13:45:41;9.00;99.90
23385;DHT22;11865;45.394;10.978;2022-12-18T13:48:21;9.10;99.90
23385;DHT22;11865;45.394;10.978;2022-12-18T13:50:57;9.10;99.90
23385;DHT22;11865;45.394;10.978;2022-12-18T13:53:44;9.10;99.90
23385;DHT22;11865;45.394;10.978;2022-12-18T13:56:20;9.00;99.90
23385;DHT22;11865;45.394;10.978;2022-12-18T14:01:46;9.00;99.90
23385;DHT22;11865;45.394;10.978;2022-12-18T14:06:52;9.10;99.90
23385;DHT22;11865;45.394;10.978;2022-12-18T14:09:28;9.20;99.90
23385;DHT22;11865;45.394;10.978;2022-12-18T14:11:57;9.10;99.90
23385;DHT22;11865;45.394;10.978;2022-12-18T14:14:47;9.00;99.90
23385;DHT22;11865;45.394;10.978;2022-12-18T14:17:19;9.00;99.90
23385;DHT22;11865;45.394;10.978;2022-12-18T14:19:49;8.80;99.90
23385;DHT22;11865;45.394;10.978;2022-12-18T14:22:25;8.90;99.90
23385;DHT22;11865;45.394;10.978;2022-12-18T14:30:35;8.90;99.90
23385;DHT22;11865;45.394;10.978;2022-12-18T14:35:42;8.80;99.90
23385;DHT22;11865;45.394;10.978;2022-12-18T14:40:44;8.80;99.90
23385;DHT22;11865;45.394;10.978;2022-12-18T14:43:11;8.80;99.90
23385;DHT22;11865;45.394;10.978;2022-12-18T14:45:44;8.80;99.90
23385;DHT22;11865;45.394;10.978;2022-12-18T14:48:15;8.80;99.90
23385;DHT22;11865;45.394;10.978;2022-12-18T14:51:02;8.60;99.90
23385;DHT22;11865;45.394;10.978;2022-12-18T14:53:42;8.50;99.90
23385;DHT22;11865;45.394;10.978;2022-12-18T14:56:22;8.40;99.90
23385;DHT22;11865;45.394;10.978;2022-12-18T14:58:57;8.50;99.90
23385;DHT22;11865;45.394;10.978;2022-12-18T15:01:34;8.50;99.90
23385;DHT22;11865;45.394;10.978;2022-12-18T15:04:04;8.50;99.90
23385;DHT22;11865;45.394;10.978;2022-12-18T15:06:35;8.40;99.90
23385;DHT22;11865;45.394;10.978;2022-12-18T15:09:20;8.10;99.90
23385;DHT22;11865;45.394;10.978;2022-12-18T15:11:48;8.00;99.90
23385;DHT22;11865;45.394;10.978;2022-12-18T15:17:00;7.80;99.90
23385;DHT22;11865;45.394;10.978;2022-12-18T15:19:40;7.80;99.90
23385;DHT22;11865;45.394;10.978;2022-12-18T15:24:50;7.30;99.90
23385;DHT22;11865;45.394;10.978;2022-12-18T15:27:35;7.20;99.90
23385;DHT22;11865;45.394;10.978;2022-12-18T15:32:39;6.70;99.90
23385;DHT22;11865;45.394;10.978;2022-12-18T15:37:44;6.40;99.90
23385;DHT22;11865;45.394;10.978;2022-12-18T15:40:14;6.30;99.90
23385;DHT22;11865;45.394;10.978;2022-12-18T15:42:44;6.10;99.90
23385;DHT22;11865;45.394;10.978;2022-12-18T15:45:30;6.40;99.90
23385;DHT22;11865;45.394;10.978;2022-12-18T15:47:58;6.50;99.90
23385;DHT22;11865;45.394;10.978;2022-12-18T15:50:25;6.60;99.90
23385;DHT22;11865;45.394;10.978;2022-12-18T15:52:54;6.70;99.90
23385;DHT22;11865;45.394;10.978;2022-12-18T15:55:24;6.70;99.90
23385;DHT22;11865;45.394;10.978;2022-12-18T15:58:10;6.80;99.90
23385;DHT22;11865;45.394;10.978;2022-12-18T16:00:40;6.80;99.90
23385;DHT22;11865;45.394;10.978;2022-12-18T16:03:08;6.80;99.90
23385;DHT22;11865;45.394;10.978;2022-12-18T16:05:36;6.70;99.90
23385;DHT22;11865;45.394;10.978;2022-12-18T16:08:04;6.60;99.90
23385;DHT22;11865;45.394;10.978;2022-12-18T16:10:31;6.60;99.90
23385;DHT22;11865;45.394;10.978;2022-12-18T16:12:59;6.60;99.90
23385;DHT22;11865;45.394;10.978;2022-12-18T16:15:26;6.50;99.90
23385;DHT22;11865;45.394;10.978;2022-12-18T16:17:54;6.40;99.90
23385;DHT22;11865;45.394;10.978;2022-12-18T16:20:22;6.30;99.90
23385;DHT22;11865;45.394;10.978;2022-12-18T16:22:49;6.30;99.90
23385;DHT22;11865;45.394;10.978;2022-12-18T16:25:26;6.20;99.90
23385;DHT22;11865;45.394;10.978;2022-12-18T16:27:55;6.20;99.90
23385;DHT22;11865;45.394;10.978;2022-12-18T16:30:26;6.00;99.90
23385;DHT22;11865;45.394;10.978;2022-12-18T16:32:59;6.00;99.90
23385;DHT22;11865;45.394;10.978;2022-12-18T16:35:27;5.80;99.90
23385;DHT22;11865;45.394;10.978;2022-12-18T16:37:54;5.70;99.90
23385;DHT22;11865;45.394;10.978;2022-12-18T16:40:21;5.70;99.90
23385;DHT22;11865;45.394;10.978;2022-12-18T16:42:49;5.70;99.90
23385;DHT22;11865;45.394;10.978;2022-12-18T16:45:17;5.50;99.90
23385;DHT22;11865;45.394;10.978;2022-12-18T16:47:45;5.40;99.90
23385;DHT22;11865;45.394;10.978;2022-12-18T16:50:13;5.30;99.90
23385;DHT22;11865;45.394;10.978;2022-12-18T16:52:41;5.20;99.90
23385;DHT22;11865;45.394;10.978;2022-12-18T16:55:09;5.00;99.90
23385;DHT22;11865;45.394;10.978;2022-12-18T16:57:36;5.10;99.90
23385;DHT22;11865;45.394;10.978;2022-12-18T17:00:04;5.20;99.90
23385;DHT22;11865;45.394;10.978;2022-12-18T17:02:32;5.20;99.90
23385;DHT22;11865;45.394;10.978;2022-12-18T17:05:00;5.20;99.90
23385;DHT22;11865;45.394;10.978;2022-12-18T17:07:28;5.00;99.90
23385;DHT22;11865;45.394;10.978;2022-12-18T17:09:56;4.80;99.90
23385;DHT22;11865;45.394;10.978;2022-12-18T17:12:24;4.70;99.90
23385;DHT22;11865;45.394;10.978;2022-12-18T17:14:52;4.60;99.90
23385;DHT22;11865;45.394;10.978;2022-12-18T17:17:20;4.50;99.90
23385;DHT22;11865;45.394;10.978;2022-12-18T17:19:50;4.50;99.90
23385;DHT22;11865;45.394;10.978;2022-12-18T17:22:20;4.40;99.90
23385;DHT22;11865;45.394;10.978;2022-12-18T17:24:48;4.40;99.90
23385;DHT22;11865;45.394;10.978;2022-12-18T17:27:16;4.40;99.90
23385;DHT22;11865;45.394;10.978;2022-12-18T17:29:44;4.30;99.90
23385;DHT22;11865;45.394;10.978;2022-12-18T17:32:16;4.10;99.90
23385;DHT22;11865;45.394;10.978;2022-12-18T17:34:44;3.90;99.90
23385;DHT22;11865;45.394;10.978;2022-12-18T17:37:11;4.00;99.90
23385;DHT22;11865;45.394;10.978;2022-12-18T17:39:39;4.00;99.90
23385;DHT22;11865;45.394;10.978;2022-12-18T17:42:08;3.90;99.90
23385;DHT22;11865;45.394;10.978;2022-12-18T17:44:42;3.70;99.90
23385;DHT22;11865;45.394;10.978;2022-12-18T17:47:11;3.70;99.90
23385;DHT22;11865;45.394;10.978;2022-12-18T17:49:39;3.70;99.90
23385;DHT22;11865;45.394;10.978;2022-12-18T17:52:07;3.70;99.90
23385;DHT22;11865;45.394;10.978;2022-12-18T17:54:35;3.70;99.90
23385;DHT22;11865;45.394;10.978;2022-12-18T17:57:06;3.60;99.90
23385;DHT22;11865;45.394;10.978;2022-12-18T17:59:33;3.60;99.90
23385;DHT22;11865;45.394;10.978;2022-12-18T18:02:01;3.60;99.90
23385;DHT22;11865;45.394;10.978;2022-12-18T18:04:29;3.50;99.90
23385;DHT22;11865;45.394;10.978;2022-12-18T18:06:56;3.60;99.90
23385;DHT22;11865;45.394;10.978;2022-12-18T18:09:24;3.50;99.90
23385;DHT22;11865;45.394;10.978;2022-12-18T18:11:51;3.40;99.90
23385;DHT22;11865;45.394;10.978;2022-12-18T18:14:37;3.30;99.90
23385;DHT22;11865;45.394;10.978;2022-12-18T18:17:05;3.10;99.90
23385;DHT22;11865;45.394;10.978;2022-12-18T18:19:32;3.00;99.90
23385;DHT22;11865;45.394;10.978;2022-12-18T18:22:00;3.00;99.90
23385;DHT22;11865;45.394;10.978;2022-12-18T18:24:30;3.00;99.90
23385;DHT22;11865;45.394;10.978;2022-12-18T18:26:59;2.90;99.90
23385;DHT22;11865;45.394;10.978;2022-12-18T18:29:27;3.10;99.90